Terminal Aerodrome Forecast
Issued by NWS Upton, NY

Home | Current Version | Previous Version | Text Only | Print | Product List | Glossary On
Versions: 1 2 3 4 5 6 7 8 9 10 11 12 13 14 15 16 17 18 19 20 21 22 23 24 25 26
000
FTUS41 KOKX 280100 AAB
TAFJFK
TAF AMD
KJFK 280133Z 2802/2906 22005KT P6SM SCT050 BKN150
     FM280600 33010KT P6SM FEW050
     FM281300 34014G18KT P6SM SKC
     FM282100 33012KT P6SM SKC=

USA.gov is the U.S. government's official web portal to all federal, state and local government web resources and services.